createdAt,value
2022-08-28T00:00:26.337Z,0.00
2022-08-28T00:01:26.849Z,0.00
2022-08-28T00:02:26.248Z,0.00
2022-08-28T00:03:26.191Z,0.00
2022-08-28T00:04:26.184Z,0.00
2022-08-28T00:05:26.154Z,0.00
2022-08-28T00:06:26.133Z,0.00
2022-08-28T00:07:26.129Z,0.00
2022-08-28T00:08:26.195Z,0.00
2022-08-28T00:09:26.098Z,0.00
2022-08-28T00:10:26.077Z,0.00
2022-08-28T00:11:26.077Z,0.00
2022-08-28T00:12:26.389Z,0.00
2022-08-28T00:13:26.103Z,0.00
2022-08-28T00:14:26.250Z,0.00
2022-08-28T00:15:26.045Z,0.00
2022-08-28T00:16:26.156Z,0.00
2022-08-28T00:17:26.026Z,0.00
2022-08-28T00:18:26.397Z,0.00
2022-08-28T00:19:26.011Z,0.00
2022-08-28T00:20:26.998Z,0.00
2022-08-28T00:21:25.982Z,0.00
2022-08-28T00:22:25.956Z,0.00
2022-08-28T00:23:25.946Z,0.00
2022-08-28T00:24:25.932Z,0.00
2022-08-28T00:25:25.934Z,0.00
2022-08-28T00:26:26.247Z,0.00
2022-08-28T00:27:25.926Z,0.00
2022-08-28T00:28:25.959Z,0.00
2022-08-28T00:29:25.983Z,0.00
2022-08-28T00:30:26.203Z,0.00
2022-08-28T00:31:26.171Z,0.00
2022-08-28T00:32:25.864Z,0.00
2022-08-28T00:33:25.998Z,0.00
2022-08-28T00:34:33.176Z,0.00
2022-08-28T00:35:25.831Z,0.00
2022-08-28T00:36:25.992Z,0.00
2022-08-28T00:37:25.824Z,0.00
2022-08-28T00:38:25.799Z,0.00
2022-08-28T00:39:26.046Z,0.00
2022-08-28T00:40:32.824Z,0.00
2022-08-28T00:41:25.877Z,0.00
2022-08-28T00:42:25.867Z,0.00
2022-08-28T00:43:25.869Z,0.00
2022-08-28T00:44:26.607Z,0.00
2022-08-28T00:45:25.930Z,0.00
2022-08-28T00:46:25.758Z,0.00
2022-08-28T00:47:25.723Z,0.00
2022-08-28T00:48:25.690Z,0.00
2022-08-28T00:49:25.843Z,0.00
2022-08-28T00:50:25.702Z,0.00
2022-08-28T00:51:25.747Z,0.00
2022-08-28T00:52:25.658Z,0.00
2022-08-28T00:53:29.917Z,0.00
2022-08-28T00:54:25.628Z,0.00
2022-08-28T00:55:25.640Z,0.00
2022-08-28T00:56:31.647Z,0.00
2022-08-28T00:57:27.113Z,0.00
2022-08-28T00:58:26.383Z,0.00
2022-08-28T00:59:25.594Z,0.00
2022-08-28T01:00:25.571Z,0.00
2022-08-28T01:01:25.676Z,0.00
2022-08-28T01:02:25.621Z,0.00
2022-08-28T01:03:26.573Z,0.00
2022-08-28T01:04:25.576Z,0.00
2022-08-28T01:05:26.277Z,0.00
2022-08-28T01:06:25.589Z,0.00
2022-08-28T01:07:25.493Z,0.00
2022-08-28T01:08:25.507Z,0.00
2022-08-28T01:09:25.488Z,0.00
2022-08-28T01:10:25.449Z,0.00
2022-08-28T01:11:25.503Z,0.00
2022-08-28T01:12:27.177Z,0.00
2022-08-28T01:13:25.474Z,0.00
2022-08-28T01:14:25.430Z,0.00
2022-08-28T01:15:26.443Z,0.00
2022-08-28T01:16:31.596Z,0.00
2022-08-28T01:17:25.555Z,0.00
2022-08-28T01:18:25.394Z,0.00
2022-08-28T01:19:25.442Z,0.00
2022-08-28T01:20:25.413Z,0.00
2022-08-28T01:21:25.419Z,0.00
2022-08-28T01:22:26.349Z,0.00
2022-08-28T01:23:25.396Z,0.00
2022-08-28T01:24:25.347Z,0.00
2022-08-28T01:25:25.518Z,0.00
2022-08-28T01:26:25.302Z,0.00
2022-08-28T01:27:25.354Z,0.00
2022-08-28T01:28:25.289Z,0.00
2022-08-28T01:29:27.568Z,0.00
2022-08-28T01:30:25.276Z,0.00
2022-08-28T01:31:25.316Z,0.00
2022-08-28T01:32:25.578Z,0.00
2022-08-28T01:33:28.107Z,0.00
2022-08-28T01:34:25.257Z,0.00
2022-08-28T01:35:25.378Z,0.00
2022-08-28T01:36:25.217Z,0.00
2022-08-28T01:37:25.448Z,0.00
2022-08-28T01:38:26.985Z,0.00
2022-08-28T01:39:25.183Z,0.00
2022-08-28T01:40:25.315Z,0.00
2022-08-28T01:41:25.174Z,0.00
2022-08-28T01:42:25.669Z,0.00
2022-08-28T01:43:25.123Z,0.00
2022-08-28T01:44:25.178Z,0.00
2022-08-28T01:45:25.099Z,0.00
2022-08-28T01:46:25.200Z,0.00
2022-08-28T01:47:25.275Z,0.00
2022-08-28T01:48:25.895Z,0.00
2022-08-28T01:49:27.939Z,0.00
2022-08-28T01:50:25.073Z,0.00
2022-08-28T01:51:25.057Z,0.00
2022-08-28T01:52:26.544Z,0.00
2022-08-28T01:53:25.496Z,0.00
2022-08-28T01:54:25.042Z,0.00
2022-08-28T01:55:25.012Z,0.00
2022-08-28T01:56:25.232Z,0.00
2022-08-28T01:57:24.990Z,0.00
2022-08-28T01:58:24.980Z,0.00
2022-08-28T01:59:25.438Z,0.00
2022-08-28T02:00:25.913Z,0.00
2022-08-28T02:01:25.005Z,0.00
2022-08-28T02:02:24.951Z,0.00
2022-08-28T02:03:24.925Z,0.00
2022-08-28T02:04:31.935Z,0.00
2022-08-28T02:05:24.920Z,0.00
2022-08-28T02:06:24.926Z,0.00
2022-08-28T02:07:25.208Z,0.00
2022-08-28T02:08:24.884Z,0.00
2022-08-28T02:09:25.056Z,0.00
2022-08-28T02:10:24.882Z,0.00
2022-08-28T02:11:24.876Z,0.00
2022-08-28T02:12:25.102Z,0.00
2022-08-28T02:13:25.710Z,0.00
2022-08-28T02:14:24.849Z,0.00
2022-08-28T02:15:25.452Z,0.00
2022-08-28T02:16:24.811Z,0.00
2022-08-28T02:17:24.797Z,0.00
2022-08-28T02:18:24.898Z,0.00
2022-08-28T02:19:24.945Z,0.00
2022-08-28T02:20:25.355Z,0.00
2022-08-28T02:21:24.740Z,0.00
2022-08-28T02:22:24.770Z,0.00
2022-08-28T02:23:24.724Z,0.00
2022-08-28T02:24:24.755Z,0.00
2022-08-28T02:25:24.779Z,0.00
2022-08-28T02:26:25.264Z,0.00
2022-08-28T02:27:24.726Z,0.00
2022-08-28T02:28:24.700Z,0.00
2022-08-28T02:29:24.683Z,0.00
2022-08-28T02:30:25.148Z,0.00
2022-08-28T02:31:24.710Z,0.00
2022-08-28T02:32:24.647Z,0.00
2022-08-28T02:33:24.769Z,0.00
2022-08-28T02:34:24.628Z,0.00
2022-08-28T02:35:24.620Z,0.00
2022-08-28T02:36:24.662Z,0.00
2022-08-28T02:37:24.614Z,0.00
2022-08-28T02:38:24.586Z,0.00
2022-08-28T02:39:24.574Z,0.00
2022-08-28T02:40:24.965Z,0.00
2022-08-28T02:41:24.549Z,0.00
2022-08-28T02:42:24.877Z,0.00
2022-08-28T02:43:24.996Z,0.00
2022-08-28T02:44:25.118Z,0.00
2022-08-28T02:45:24.551Z,0.00
2022-08-28T02:46:24.537Z,0.00
2022-08-28T02:47:24.498Z,0.00
2022-08-28T02:48:24.474Z,0.00
2022-08-28T02:49:24.632Z,0.00
2022-08-28T02:50:24.483Z,0.00
2022-08-28T02:51:24.530Z,0.00
2022-08-28T02:52:25.043Z,0.00
2022-08-28T02:53:24.438Z,0.00
2022-08-28T02:54:24.634Z,0.00
2022-08-28T02:55:24.812Z,0.00
2022-08-28T02:56:24.454Z,0.00
2022-08-28T02:57:24.441Z,0.00
2022-08-28T02:58:24.469Z,0.00
2022-08-28T02:59:24.379Z,0.00
2022-08-28T03:00:24.378Z,0.00
2022-08-28T03:01:24.751Z,0.00
2022-08-28T03:02:25.486Z,0.00
2022-08-28T03:03:24.398Z,0.00
2022-08-28T03:04:24.367Z,0.00
2022-08-28T03:05:24.577Z,0.00
2022-08-28T03:06:24.350Z,0.00
2022-08-28T03:07:24.434Z,0.00
2022-08-28T03:08:27.140Z,0.00
2022-08-28T03:09:24.579Z,0.00
2022-08-28T03:10:24.283Z,0.00
2022-08-28T03:11:24.280Z,0.00
2022-08-28T03:12:24.245Z,0.00
2022-08-28T03:13:27.212Z,0.00
2022-08-28T03:14:25.256Z,0.00
2022-08-28T03:15:24.254Z,0.00
2022-08-28T03:16:24.541Z,0.00
2022-08-28T03:17:24.181Z,0.00
2022-08-28T03:18:24.319Z,0.00
2022-08-28T03:19:25.101Z,0.00
2022-08-28T03:21:34.937Z,0.00
2022-08-28T03:23:27.478Z,0.00
2022-08-28T03:24:29.031Z,0.00
2022-08-28T03:26:38.770Z,0.00
2022-08-28T03:27:46.563Z,0.00
2022-08-28T03:28:39.715Z,0.00
2022-08-28T03:29:40.012Z,0.00
2022-08-28T03:30:46.237Z,0.00
2022-08-28T03:31:39.728Z,0.00
2022-08-28T03:33:31.070Z,0.00
2022-08-28T03:34:32.060Z,0.00
2022-08-28T03:36:42.937Z,0.00
2022-08-28T03:37:43.916Z,0.00
2022-08-28T03:40:12.817Z,0.00
2022-08-28T03:41:13.982Z,0.00
2022-08-28T03:42:22.963Z,0.00
2022-08-28T03:43:13.728Z,0.00
2022-08-28T03:44:13.699Z,0.00
2022-08-28T03:45:13.671Z,0.00
2022-08-28T03:46:13.758Z,0.00
2022-08-28T03:47:14.015Z,0.00
2022-08-28T03:48:13.840Z,0.00
2022-08-28T03:49:13.621Z,0.00
2022-08-28T03:50:13.624Z,0.00
2022-08-28T03:51:13.633Z,0.00
2022-08-28T03:52:13.629Z,0.00
2022-08-28T03:53:13.582Z,0.00
2022-08-28T03:54:13.782Z,0.00
2022-08-28T03:55:13.907Z,0.00
2022-08-28T03:56:13.790Z,0.00
2022-08-28T03:57:13.790Z,0.00
2022-08-28T03:58:18.987Z,0.00
2022-08-28T03:59:13.540Z,0.00
2022-08-28T04:00:13.558Z,0.00
2022-08-28T04:01:13.684Z,0.00
2022-08-28T04:02:20.857Z,0.00
2022-08-28T04:03:13.591Z,0.00
2022-08-28T04:04:13.454Z,1.00
2022-08-28T04:05:19.631Z,0.00
2022-08-28T04:06:13.494Z,1.00
2022-08-28T04:08:04.222Z,1.00
2022-08-28T04:09:12.407Z,1.00
2022-08-28T04:10:11.366Z,2.00
2022-08-28T04:11:05.378Z,2.00
2022-08-28T04:13:15.451Z,3.00
2022-08-28T04:14:16.433Z,2.00
2022-08-28T04:15:16.421Z,4.00
2022-08-28T04:16:16.431Z,5.00
2022-08-28T04:17:16.417Z,7.00
2022-08-28T04:18:16.398Z,10.00
2022-08-28T04:19:16.353Z,13.00
2022-08-28T04:20:16.337Z,12.00
2022-08-28T04:21:16.357Z,15.00
2022-08-28T04:22:16.330Z,17.00
2022-08-28T04:23:16.332Z,17.00
2022-08-28T04:24:16.305Z,23.00
2022-08-28T04:25:16.305Z,28.00
2022-08-28T04:26:16.292Z,31.00
2022-08-28T04:27:16.303Z,37.00
2022-08-28T04:28:16.279Z,41.00
2022-08-28T04:29:16.288Z,45.00
2022-08-28T04:30:16.225Z,51.00
2022-08-28T04:31:16.283Z,59.00
2022-08-28T04:32:16.259Z,66.00
2022-08-28T04:33:16.253Z,71.00
2022-08-28T04:34:16.196Z,81.00
2022-08-28T04:35:16.189Z,90.00
2022-08-28T04:36:16.191Z,100.00
2022-08-28T04:37:16.200Z,107.00
2022-08-28T04:38:16.318Z,116.00
2022-08-28T04:39:16.161Z,125.00
2022-08-28T04:40:16.264Z,136.00
2022-08-28T04:41:16.145Z,145.00
2022-08-28T04:42:16.139Z,154.00
2022-08-28T04:43:16.116Z,165.00
2022-08-28T04:44:16.101Z,181.00
2022-08-28T04:45:16.099Z,197.00
2022-08-28T04:46:16.164Z,212.00
2022-08-28T04:47:16.090Z,233.00
2022-08-28T04:48:16.331Z,261.00
2022-08-28T04:49:16.056Z,279.00
2022-08-28T04:50:16.027Z,299.00
2022-08-28T04:51:16.071Z,316.00
2022-08-28T04:52:16.105Z,336.00
2022-08-28T04:53:16.046Z,352.00
2022-08-28T04:54:15.984Z,364.00
2022-08-28T04:55:15.999Z,372.00
2022-08-28T04:56:15.976Z,388.00
2022-08-28T04:57:15.986Z,389.00
2022-08-28T04:58:15.978Z,392.00
2022-08-28T04:59:15.999Z,410.00
2022-08-28T05:00:15.936Z,426.00
2022-08-28T05:01:16.013Z,416.00
2022-08-28T05:02:15.979Z,407.00
2022-08-28T05:03:15.956Z,441.00
2022-08-28T05:04:15.895Z,469.00
2022-08-28T05:05:15.914Z,482.00
2022-08-28T05:06:15.873Z,489.00
2022-08-28T05:07:15.901Z,487.00
2022-08-28T05:08:15.876Z,503.00
2022-08-28T05:09:15.886Z,505.00
2022-08-28T05:10:15.861Z,500.00
2022-08-28T05:11:32.728Z,524.00
2022-08-28T05:12:15.844Z,565.00
2022-08-28T05:13:15.842Z,590.00
2022-08-28T05:14:16.408Z,634.00
2022-08-28T05:15:15.936Z,661.00
2022-08-28T05:16:15.811Z,695.00
2022-08-28T05:17:15.786Z,716.00
2022-08-28T05:18:15.772Z,755.00
2022-08-28T05:19:15.788Z,781.00
2022-08-28T05:20:15.745Z,823.00
2022-08-28T05:21:15.755Z,886.00
2022-08-28T05:22:15.707Z,924.00
2022-08-28T05:23:15.714Z,968.00
2022-08-28T05:24:15.725Z,1025.00
2022-08-28T05:25:15.711Z,1080.00
2022-08-28T05:26:15.678Z,1109.00
2022-08-28T05:27:15.706Z,1181.00
2022-08-28T05:28:15.709Z,1230.00
2022-08-28T05:29:15.745Z,1286.00
2022-08-28T05:30:15.638Z,1312.00
2022-08-28T05:31:15.715Z,1368.00
2022-08-28T05:32:15.621Z,1392.00
2022-08-28T05:33:15.634Z,1430.00
2022-08-28T05:34:15.634Z,1421.00
2022-08-28T05:35:15.626Z,1399.00
2022-08-28T05:36:15.578Z,1382.00
2022-08-28T05:37:19.572Z,1355.00
2022-08-28T05:38:15.672Z,1421.00
2022-08-28T05:39:15.578Z,1527.00
2022-08-28T05:40:15.642Z,1474.00
2022-08-28T05:41:15.560Z,1608.00
2022-08-28T05:42:15.524Z,1604.00
2022-08-28T05:43:15.531Z,1716.00
2022-08-28T05:44:15.500Z,1822.00
2022-08-28T05:45:15.539Z,1861.00
2022-08-28T05:46:15.517Z,1833.00
2022-08-28T05:47:15.475Z,1803.00
2022-08-28T05:48:15.447Z,1891.00
2022-08-28T05:49:15.469Z,1879.00
2022-08-28T05:50:15.440Z,1923.00
2022-08-28T05:51:15.438Z,2111.00
2022-08-28T05:52:15.444Z,2180.00
2022-08-28T05:53:15.401Z,2307.00
2022-08-28T05:54:15.421Z,2238.00
2022-08-28T05:55:15.393Z,1817.00
2022-08-28T05:56:15.528Z,1697.00
2022-08-28T05:57:15.387Z,1575.00
2022-08-28T05:58:15.350Z,1504.00
2022-08-28T05:59:15.367Z,1540.00
2022-08-28T06:00:15.344Z,1548.00
2022-08-28T06:01:15.345Z,1576.00
2022-08-28T06:02:15.376Z,1560.00
2022-08-28T06:03:15.314Z,1509.00
2022-08-28T06:04:15.452Z,1468.00
2022-08-28T06:05:15.317Z,1422.00
2022-08-28T06:06:15.299Z,1399.00
2022-08-28T06:07:15.278Z,1386.00
2022-08-28T06:08:15.261Z,1400.00
2022-08-28T06:09:15.257Z,1458.00
2022-08-28T06:10:15.311Z,1516.00
2022-08-28T06:11:15.217Z,1554.00
2022-08-28T06:12:15.675Z,1619.00
2022-08-28T06:13:15.207Z,1717.00
2022-08-28T06:14:16.227Z,1761.00
2022-08-28T06:15:15.193Z,1794.00
2022-08-28T06:16:15.228Z,1819.00
2022-08-28T06:17:15.159Z,1831.00
2022-08-28T06:18:15.212Z,1843.00
2022-08-28T06:19:15.488Z,1886.00
2022-08-28T06:20:15.150Z,1977.00
2022-08-28T06:21:15.138Z,2040.00
2022-08-28T06:22:15.111Z,2160.00
2022-08-28T06:23:15.102Z,2276.00
2022-08-28T06:24:15.120Z,2364.00
2022-08-28T06:25:15.112Z,2535.00
2022-08-28T06:26:15.088Z,2702.00
2022-08-28T06:27:15.134Z,2815.00
2022-08-28T06:28:15.073Z,2911.00
2022-08-28T06:29:15.075Z,2987.00
2022-08-28T06:30:15.038Z,3160.00
2022-08-28T06:31:24.627Z,3401.00
2022-08-28T06:32:15.076Z,3800.00
2022-08-28T06:33:15.029Z,4053.00
2022-08-28T06:34:15.022Z,4313.00
2022-08-28T06:35:15.097Z,4382.00
2022-08-28T06:36:14.978Z,4515.00
2022-08-28T06:37:14.957Z,4496.00
2022-08-28T06:38:15.037Z,4519.00
2022-08-28T06:39:14.972Z,4510.00
2022-08-28T06:40:15.020Z,4485.00
2022-08-28T06:41:14.913Z,4481.00
2022-08-28T06:42:14.916Z,4517.00
2022-08-28T06:43:14.894Z,4608.00
2022-08-28T06:44:14.957Z,4677.00
2022-08-28T06:45:14.882Z,4642.00
2022-08-28T06:46:15.073Z,4468.00
2022-08-28T06:47:14.856Z,4728.00
2022-08-28T06:48:14.859Z,4534.00
2022-08-28T06:49:14.866Z,4166.00
2022-08-28T06:50:14.873Z,4240.00
2022-08-28T06:51:14.829Z,4423.00
2022-08-28T06:52:14.806Z,4370.00
2022-08-28T06:53:14.806Z,4550.00
2022-08-28T06:54:17.264Z,4702.00
2022-08-28T06:55:14.782Z,4939.00
2022-08-28T06:56:26.026Z,5179.00
2022-08-28T06:57:14.769Z,5423.00
2022-08-28T06:58:14.905Z,5441.00
2022-08-28T06:59:14.755Z,5241.00
2022-08-28T07:00:14.723Z,5131.00
2022-08-28T07:01:14.838Z,5113.00
2022-08-28T07:02:14.834Z,5131.00
2022-08-28T07:03:14.690Z,5278.00
2022-08-28T07:04:14.845Z,5421.00
2022-08-28T07:05:14.689Z,5475.00
2022-08-28T07:06:14.680Z,5677.00
2022-08-28T07:07:31.264Z,5376.00
2022-08-28T07:08:14.783Z,5440.00
2022-08-28T07:09:14.698Z,5463.00
2022-08-28T07:10:14.681Z,5448.00
2022-08-28T07:11:14.611Z,5637.00
2022-08-28T07:12:14.608Z,5678.00
2022-08-28T07:13:14.601Z,5669.00
2022-08-28T07:14:14.602Z,6095.00
2022-08-28T07:15:14.547Z,6161.00
2022-08-28T07:16:14.664Z,5979.00
2022-08-28T07:17:14.523Z,6275.00
2022-08-28T07:18:14.597Z,6719.00
2022-08-28T07:19:14.530Z,6897.00
2022-08-28T07:20:14.551Z,6914.00
2022-08-28T07:21:14.526Z,6878.00
2022-08-28T07:22:14.502Z,6778.00
2022-08-28T07:23:14.477Z,6645.00
2022-08-28T07:24:14.486Z,6593.00
2022-08-28T07:25:14.463Z,6471.00
2022-08-28T07:26:14.478Z,6356.00
2022-08-28T07:27:18.755Z,6477.00
2022-08-28T07:28:14.699Z,6440.00
2022-08-28T07:29:14.450Z,6534.00
2022-08-28T07:30:14.413Z,6548.00
2022-08-28T07:31:14.434Z,6548.00
2022-08-28T07:32:14.424Z,6627.00
2022-08-28T07:33:14.392Z,6838.00
2022-08-28T07:34:14.376Z,6934.00
2022-08-28T07:35:14.407Z,6946.00
2022-08-28T07:36:22.051Z,6965.00
2022-08-28T07:37:15.399Z,6979.00
2022-08-28T07:38:14.493Z,7179.00
2022-08-28T07:39:14.364Z,7200.00
2022-08-28T07:40:14.389Z,7092.00
2022-08-28T07:41:14.332Z,7186.00
2022-08-28T07:42:14.332Z,7534.00
2022-08-28T07:43:14.290Z,7637.00
2022-08-28T07:44:14.279Z,7881.00
2022-08-28T07:45:14.285Z,8261.00
2022-08-28T07:46:14.297Z,8502.00
2022-08-28T07:47:14.273Z,8450.00
2022-08-28T07:48:14.576Z,8689.00
2022-08-28T07:49:14.358Z,8811.00
2022-08-28T07:50:14.224Z,8952.00
2022-08-28T07:51:14.189Z,9067.00
2022-08-28T07:52:14.458Z,9169.00
2022-08-28T07:53:14.176Z,9503.00
2022-08-28T07:54:15.446Z,9539.00
2022-08-28T07:55:14.163Z,9259.00
2022-08-28T07:56:14.214Z,9091.00
2022-08-28T07:57:14.143Z,9469.00
2022-08-28T07:58:14.259Z,9452.00
2022-08-28T07:59:16.927Z,9479.00
2022-08-28T08:00:14.157Z,9532.00
2022-08-28T08:01:14.153Z,9288.00
2022-08-28T08:02:14.070Z,10777.00
2022-08-28T08:03:14.112Z,8901.00
2022-08-28T08:04:14.067Z,6130.00
2022-08-28T08:05:14.332Z,9715.00
2022-08-28T08:06:14.031Z,10284.00
2022-08-28T08:07:21.422Z,9760.00
2022-08-28T08:08:14.269Z,10302.00
2022-08-28T08:09:14.117Z,8051.00
2022-08-28T08:10:14.072Z,8938.00
2022-08-28T08:11:16.641Z,7625.00
2022-08-28T08:12:13.983Z,8727.00
2022-08-28T08:13:13.952Z,9716.00
2022-08-28T08:14:13.970Z,10308.00
2022-08-28T08:15:13.952Z,9856.00
2022-08-28T08:16:14.133Z,10187.00
2022-08-28T08:17:13.934Z,10035.00
2022-08-28T08:18:14.103Z,11385.00
2022-08-28T08:19:13.917Z,8153.00
2022-08-28T08:20:13.921Z,14619.00
2022-08-28T08:21:13.890Z,7575.00
2022-08-28T08:22:13.893Z,13126.00
2022-08-28T08:23:13.883Z,15101.00
2022-08-28T08:24:19.978Z,14881.00
2022-08-28T08:25:13.861Z,16425.00
2022-08-28T08:26:14.432Z,13567.00
2022-08-28T08:27:13.853Z,9678.00
2022-08-28T08:28:13.947Z,5806.00
2022-08-28T08:29:13.795Z,10201.00
2022-08-28T08:30:13.847Z,7902.00
2022-08-28T08:31:13.861Z,6611.00
2022-08-28T08:32:13.800Z,10624.00
2022-08-28T08:33:13.763Z,8749.00
2022-08-28T08:34:13.779Z,8447.00
2022-08-28T08:35:13.780Z,4587.00
2022-08-28T08:36:13.814Z,13739.00
2022-08-28T08:37:13.732Z,13498.00
2022-08-28T08:38:13.944Z,13491.00
2022-08-28T08:39:13.703Z,9859.00
2022-08-28T08:40:13.731Z,9418.00
2022-08-28T08:41:13.692Z,9335.00
2022-08-28T08:42:13.708Z,9579.00
2022-08-28T08:43:13.694Z,8770.00
2022-08-28T08:44:13.673Z,7591.00
2022-08-28T08:45:13.666Z,17691.00
2022-08-28T08:46:13.755Z,3817.00
2022-08-28T08:47:15.219Z,19456.00
2022-08-28T08:48:13.808Z,6756.00
2022-08-28T08:49:13.603Z,17086.00
2022-08-28T08:50:13.622Z,22693.00
2022-08-28T08:51:13.589Z,14601.00
2022-08-28T08:52:13.589Z,12038.00
2022-08-28T08:53:13.569Z,18827.00
2022-08-28T08:54:13.578Z,14934.00
2022-08-28T08:55:15.131Z,13148.00
2022-08-28T08:56:14.440Z,11643.00
2022-08-28T08:57:13.551Z,10414.00
2022-08-28T08:58:13.776Z,10546.00
2022-08-28T08:59:20.545Z,10012.00
2022-08-28T09:00:15.973Z,9520.00
2022-08-28T09:01:13.562Z,8549.00
2022-08-28T09:02:13.555Z,5718.00
2022-08-28T09:03:13.500Z,12867.00
2022-08-28T09:04:13.483Z,9561.00
2022-08-28T09:05:13.476Z,13524.00
2022-08-28T09:06:13.605Z,12006.00
2022-08-28T09:07:13.465Z,8420.00
2022-08-28T09:08:13.606Z,13052.00
2022-08-28T09:09:13.429Z,11182.00
2022-08-28T09:10:13.409Z,10537.00
2022-08-28T09:11:13.418Z,9956.00
2022-08-28T09:12:13.421Z,6375.00
2022-08-28T09:13:13.377Z,4844.00
2022-08-28T09:14:13.383Z,25744.00
2022-08-28T09:15:13.849Z,26426.00
2022-08-28T09:16:13.404Z,25227.00
2022-08-28T09:17:13.357Z,76173.00
2022-08-28T09:18:13.393Z,81605.00
2022-08-28T09:19:13.376Z,73657.00
2022-08-28T09:20:13.324Z,73943.00
2022-08-28T09:21:13.321Z,73973.00
2022-08-28T09:22:13.294Z,74216.00
2022-08-28T09:23:13.995Z,74947.00
2022-08-28T09:24:13.275Z,75599.00
2022-08-28T09:25:13.282Z,78313.00
2022-08-28T09:26:13.284Z,78290.00
2022-08-28T09:27:14.508Z,76783.00
2022-08-28T09:28:13.500Z,75027.00
2022-08-28T09:29:13.222Z,69871.00
2022-08-28T09:30:13.530Z,31846.00
2022-08-28T09:31:13.288Z,15110.00
2022-08-28T09:32:13.200Z,16395.00
2022-08-28T09:33:13.180Z,10710.00
2022-08-28T09:34:13.221Z,20635.00
2022-08-28T09:35:13.162Z,20045.00
2022-08-28T09:36:13.164Z,17535.00
2022-08-28T09:37:14.044Z,17424.00
2022-08-28T09:38:13.294Z,13655.00
2022-08-28T09:39:13.131Z,6763.00
2022-08-28T09:40:13.202Z,19541.00
2022-08-28T09:41:13.129Z,6110.00
2022-08-28T09:42:13.099Z,21250.00
2022-08-28T09:43:13.079Z,16463.00
2022-08-28T09:44:13.112Z,6173.00
2022-08-28T09:45:13.050Z,22373.00
2022-08-28T09:46:13.146Z,23438.00
2022-08-28T09:47:13.036Z,25439.00
2022-08-28T09:48:13.192Z,23416.00
2022-08-28T09:49:13.058Z,21675.00
2022-08-28T09:50:13.023Z,22178.00
2022-08-28T09:51:13.014Z,20879.00
2022-08-28T09:52:13.036Z,21090.00
2022-08-28T09:53:12.985Z,21022.00
2022-08-28T09:54:12.976Z,21364.00
2022-08-28T09:55:12.984Z,21490.00
2022-08-28T09:56:12.965Z,22276.00
2022-08-28T09:57:12.953Z,22577.00
2022-08-28T09:58:13.837Z,21708.00
2022-08-28T09:59:12.960Z,22028.00
2022-08-28T10:00:12.920Z,22062.00
2022-08-28T10:01:13.004Z,23799.00
2022-08-28T10:02:12.954Z,25651.00
2022-08-28T10:03:12.917Z,23961.00
2022-08-28T10:04:12.925Z,21090.00
2022-08-28T10:07:22.408Z,36582.00
2022-08-28T10:09:14.535Z,80060.00
2022-08-28T10:10:15.528Z,82401.00
2022-08-28T10:11:15.487Z,79298.00
2022-08-28T10:12:15.488Z,75695.00
2022-08-28T10:13:15.495Z,75829.00
2022-08-28T10:14:15.493Z,77245.00
2022-08-28T10:15:15.695Z,76048.00
2022-08-28T10:16:15.562Z,72310.00
2022-08-28T10:17:15.430Z,72473.00
2022-08-28T10:18:15.477Z,74997.00
2022-08-28T10:19:15.423Z,78102.00
2022-08-28T10:20:15.411Z,75962.00
2022-08-28T10:21:15.411Z,72495.00
2022-08-28T10:22:15.456Z,72652.00
2022-08-28T10:23:17.665Z,76665.00
2022-08-28T10:24:15.432Z,79194.00
2022-08-28T10:25:15.399Z,75143.00
2022-08-28T10:26:15.391Z,73500.00
2022-08-28T10:27:15.352Z,74846.00
2022-08-28T10:28:15.553Z,74918.00
2022-08-28T10:29:15.330Z,76151.00
2022-08-28T10:30:15.367Z,75967.00
2022-08-28T10:31:15.419Z,75707.00
2022-08-28T10:32:15.374Z,76290.00
2022-08-28T10:33:15.316Z,77571.00
2022-08-28T10:34:15.309Z,76951.00
2022-08-28T10:35:15.303Z,74692.00
2022-08-28T10:36:28.734Z,78229.00
2022-08-28T10:37:15.351Z,74303.00
2022-08-28T10:38:15.474Z,73096.00
2022-08-28T10:39:15.283Z,72763.00
2022-08-28T10:40:15.280Z,75281.00
2022-08-28T10:41:15.251Z,68058.00
2022-08-28T10:42:15.230Z,12466.00
2022-08-28T10:43:15.224Z,79166.00
2022-08-28T10:44:15.253Z,73852.00
2022-08-28T10:45:15.188Z,75215.00
2022-08-28T10:46:15.309Z,77543.00
2022-08-28T10:47:15.177Z,79291.00
2022-08-28T10:48:15.394Z,77976.00
2022-08-28T10:49:15.189Z,74679.00
2022-08-28T10:50:15.167Z,74922.00
2022-08-28T10:51:15.147Z,78265.00
2022-08-28T10:52:15.150Z,79054.00
2022-08-28T10:53:15.120Z,80536.00
2022-08-28T10:54:15.371Z,80362.00
2022-08-28T10:55:15.145Z,80910.00
2022-08-28T10:56:15.135Z,80987.00
2022-08-28T10:57:15.105Z,80167.00
2022-08-28T10:58:24.720Z,74470.00
2022-08-28T10:59:15.090Z,73933.00
2022-08-28T11:00:15.085Z,80753.00
2022-08-28T11:01:15.139Z,79234.00
2022-08-28T11:02:15.096Z,77521.00
2022-08-28T11:03:33.490Z,78012.00
2022-08-28T11:05:25.826Z,78504.00
2022-08-28T11:06:26.746Z,74631.00
2022-08-28T11:07:26.821Z,75861.00
2022-08-28T11:08:26.957Z,78994.00
2022-08-28T11:09:26.746Z,76109.00
2022-08-28T11:10:26.747Z,74812.00
2022-08-28T11:11:26.811Z,74510.00
2022-08-28T11:12:26.691Z,74847.00
2022-08-28T11:14:29.916Z,76100.00
2022-08-28T11:15:36.737Z,75834.00
2022-08-28T11:17:22.073Z,75908.00
2022-08-28T11:19:17.938Z,79859.00
2022-08-28T11:20:17.912Z,79965.00
2022-08-28T11:21:17.915Z,77967.00
2022-08-28T11:23:50.010Z,78651.00
2022-08-28T11:24:51.037Z,77377.00
2022-08-28T11:25:51.846Z,78883.00
2022-08-28T11:26:57.164Z,77978.00
2022-08-28T11:27:50.963Z,76314.00
2022-08-28T11:28:57.147Z,73150.00
2022-08-28T11:29:51.244Z,75601.00
2022-08-28T11:31:42.902Z,75047.00
2022-08-28T11:32:52.955Z,78894.00
2022-08-28T11:34:38.554Z,73660.00
2022-08-28T11:35:48.040Z,65155.00
2022-08-28T11:38:03.041Z,79230.00
2022-08-28T11:39:11.411Z,77309.00
2022-08-28T11:40:04.258Z,64720.00
2022-08-28T11:41:03.963Z,28173.00
2022-08-28T11:42:04.031Z,22610.00
2022-08-28T11:43:04.025Z,22177.00
2022-08-28T11:44:04.063Z,21702.00
2022-08-28T11:45:03.933Z,21302.00
2022-08-28T11:46:03.973Z,21839.00
2022-08-28T11:48:15.065Z,75757.00
2022-08-28T11:49:15.761Z,80776.00
2022-08-28T11:50:15.850Z,78849.00
2022-08-28T11:51:15.861Z,75250.00
2022-08-28T11:52:15.748Z,78556.00
2022-08-28T11:53:15.713Z,73407.00
2022-08-28T11:54:16.129Z,78317.00
2022-08-28T11:55:16.636Z,71427.00
2022-08-28T11:56:26.362Z,40744.00
2022-08-28T11:57:15.689Z,9995.00
2022-08-28T11:58:16.709Z,81794.00
2022-08-28T11:59:15.672Z,78861.00
2022-08-28T12:00:15.675Z,78664.00
2022-08-28T12:01:16.545Z,80036.00
2022-08-28T12:02:16.360Z,77518.00
2022-08-28T12:03:15.738Z,76424.00
2022-08-28T12:04:15.676Z,76209.00
2022-08-28T12:05:15.622Z,78484.00
2022-08-28T12:06:15.656Z,78814.00
2022-08-28T12:07:16.947Z,77948.00
2022-08-28T12:08:16.928Z,79160.00
2022-08-28T12:09:15.612Z,79661.00
2022-08-28T12:10:15.580Z,80199.00
2022-08-28T12:11:15.586Z,79195.00
2022-08-28T12:12:15.859Z,77344.00
2022-08-28T12:13:15.851Z,78616.00
2022-08-28T12:14:15.745Z,70889.00
2022-08-28T12:15:15.541Z,78724.00
2022-08-28T12:16:15.701Z,79699.00
2022-08-28T12:17:15.533Z,78656.00
2022-08-28T12:18:16.533Z,79407.00
2022-08-28T12:19:15.507Z,81369.00
2022-08-28T12:20:15.499Z,78083.00
2022-08-28T12:21:15.526Z,78434.00
2022-08-28T12:22:15.634Z,77277.00
2022-08-28T12:23:15.700Z,76539.00
2022-08-28T12:24:17.272Z,74394.00
2022-08-28T12:25:16.499Z,73499.00
2022-08-28T12:26:16.227Z,75626.00
2022-08-28T12:27:15.476Z,77012.00
2022-08-28T12:28:15.485Z,73564.00
2022-08-28T12:29:15.543Z,73348.00
2022-08-28T12:30:15.427Z,73331.00
2022-08-28T12:31:18.569Z,58636.00
2022-08-28T12:32:15.577Z,14996.00
2022-08-28T12:33:15.427Z,13606.00
2022-08-28T12:34:15.473Z,13281.00
2022-08-28T12:35:16.756Z,12994.00
2022-08-28T12:36:15.411Z,13522.00
2022-08-28T12:37:15.576Z,13392.00
2022-08-28T12:38:15.448Z,12707.00
2022-08-28T12:39:15.382Z,12385.00
2022-08-28T12:40:15.422Z,11287.00
2022-08-28T12:41:15.366Z,10083.00
2022-08-28T12:42:15.338Z,9995.00
2022-08-28T12:43:15.698Z,9550.00
2022-08-28T12:44:15.556Z,9345.00
2022-08-28T12:45:16.480Z,9376.00
2022-08-28T12:46:19.098Z,9583.00